createdAt,value
2019-03-11T00:02:26.051Z,6.00
2019-03-11T00:04:54.889Z,5.90
2019-03-11T00:07:22.714Z,5.80
2019-03-11T00:09:50.564Z,5.80
2019-03-11T00:12:18.322Z,5.80
2019-03-11T00:14:45.879Z,5.80
2019-03-11T00:17:13.568Z,5.70
2019-03-11T00:19:41.293Z,5.70
2019-03-11T00:22:09.022Z,5.70
2019-03-11T00:24:36.692Z,5.60
2019-03-11T00:27:05.021Z,5.50
2019-03-11T00:29:32.667Z,5.50
2019-03-11T00:32:00.459Z,5.50
2019-03-11T00:34:28.053Z,5.40
2019-03-11T00:36:55.640Z,5.40
2019-03-11T00:39:23.225Z,5.40
2019-03-11T00:41:51.094Z,5.30
2019-03-11T00:44:18.850Z,5.40
2019-03-11T00:46:46.461Z,5.40
2019-03-11T00:49:14.093Z,5.30
2019-03-11T00:51:41.853Z,5.20
2019-03-11T00:54:09.468Z,5.20
2019-03-11T00:56:37.021Z,5.20
2019-03-11T00:59:04.559Z,5.20
2019-03-11T01:01:32.165Z,5.20
2019-03-11T01:03:59.854Z,5.10
2019-03-11T01:06:27.475Z,5.10
2019-03-11T01:08:55.121Z,5.00
2019-03-11T01:11:22.640Z,5.00
2019-03-11T01:13:50.818Z,5.00
2019-03-11T01:16:19.251Z,5.00
2019-03-11T01:18:47.223Z,5.00
2019-03-11T01:21:14.830Z,5.00
2019-03-11T01:23:42.544Z,5.00
2019-03-11T01:26:10.076Z,5.00
2019-03-11T01:28:37.681Z,5.00
2019-03-11T01:31:05.341Z,5.00
2019-03-11T01:33:33.896Z,4.90
2019-03-11T01:36:01.354Z,4.90
2019-03-11T01:38:29.154Z,4.90
2019-03-11T01:40:57.210Z,5.00
2019-03-11T01:43:24.779Z,5.00
2019-03-11T01:45:52.327Z,5.00
2019-03-11T01:48:19.922Z,5.00
2019-03-11T01:50:47.613Z,5.00
2019-03-11T01:53:15.054Z,5.00
2019-03-11T01:55:42.604Z,4.90
2019-03-11T01:58:10.161Z,4.90
2019-03-11T02:00:57.708Z,5.00
2019-03-11T02:03:27.971Z,4.90
2019-03-11T02:05:55.610Z,4.90
2019-03-11T02:08:23.309Z,4.90
2019-03-11T02:10:50.989Z,4.90
2019-03-11T02:13:18.533Z,5.00
2019-03-11T02:15:46.022Z,5.00
2019-03-11T02:18:13.599Z,5.00
2019-03-11T02:20:41.290Z,5.00
2019-03-11T02:23:08.912Z,5.00
2019-03-11T02:25:36.478Z,5.10
2019-03-11T02:28:03.977Z,5.20
2019-03-11T02:30:31.652Z,5.20
2019-03-11T02:32:59.142Z,5.30
2019-03-11T02:35:28.337Z,5.30
2019-03-11T02:37:56.631Z,5.30
2019-03-11T02:40:24.269Z,5.40
2019-03-11T02:42:52.039Z,5.40
2019-03-11T02:45:19.717Z,5.40
2019-03-11T02:47:47.267Z,5.40
2019-03-11T02:50:14.989Z,5.50
2019-03-11T02:52:42.703Z,5.50
2019-03-11T02:55:10.281Z,5.60
2019-03-11T02:57:37.940Z,5.50
2019-03-11T03:00:08.486Z,5.60
2019-03-11T03:02:59.567Z,5.50
2019-03-11T03:05:30.494Z,5.50
2019-03-11T03:07:58.227Z,5.50
2019-03-11T03:10:25.831Z,5.50
2019-03-11T03:12:53.410Z,5.40
2019-03-11T03:15:21.076Z,5.40
2019-03-11T03:17:48.713Z,5.40
2019-03-11T03:20:16.290Z,5.50
2019-03-11T03:22:44.980Z,5.50
2019-03-11T03:25:12.572Z,5.50
2019-03-11T03:27:40.184Z,5.50
2019-03-11T03:30:11.309Z,5.60
2019-03-11T03:32:39.002Z,5.60
2019-03-11T03:35:06.475Z,5.60
2019-03-11T03:37:34.149Z,5.70
2019-03-11T03:40:01.848Z,5.70
2019-03-11T03:42:29.596Z,5.80
2019-03-11T03:45:19.771Z,5.80
2019-03-11T03:47:47.299Z,5.90
2019-03-11T03:50:14.805Z,5.80
2019-03-11T03:52:42.286Z,5.70
2019-03-11T03:55:09.871Z,5.60
2019-03-11T03:57:37.387Z,5.50
2019-03-11T04:00:05.293Z,5.40
2019-03-11T04:02:33.244Z,5.30
2019-03-11T04:05:00.937Z,5.30
2019-03-11T04:07:28.437Z,5.20
2019-03-11T04:09:55.971Z,5.20
2019-03-11T04:12:23.578Z,5.20
2019-03-11T04:14:51.375Z,5.10
2019-03-11T04:17:19.054Z,5.10
2019-03-11T04:19:46.630Z,5.00
2019-03-11T04:22:14.273Z,5.00
2019-03-11T04:24:42.025Z,4.90
2019-03-11T04:27:09.484Z,4.90
2019-03-11T04:29:37.066Z,5.00
2019-03-11T04:32:04.800Z,4.90
2019-03-11T04:34:32.305Z,4.90
2019-03-11T04:37:00.968Z,4.90
2019-03-11T04:39:28.579Z,4.90
2019-03-11T04:41:56.083Z,4.90
2019-03-11T04:44:23.622Z,4.90
2019-03-11T04:46:51.201Z,5.00
2019-03-11T04:49:19.005Z,5.00
2019-03-11T04:51:46.481Z,5.00
2019-03-11T04:54:14.006Z,5.00
2019-03-11T04:56:41.554Z,5.10
2019-03-11T04:59:10.767Z,5.10
2019-03-11T05:01:38.315Z,5.10
2019-03-11T05:04:05.872Z,5.10
2019-03-11T05:06:33.468Z,5.20
2019-03-11T05:09:01.254Z,5.20
2019-03-11T05:11:30.645Z,5.20
2019-03-11T05:13:58.246Z,5.20
2019-03-11T05:16:25.839Z,5.20
2019-03-11T05:18:53.540Z,5.20
2019-03-11T05:21:21.062Z,5.10
2019-03-11T05:23:48.671Z,5.10
2019-03-11T05:26:16.229Z,5.10
2019-03-11T05:28:43.871Z,5.10
2019-03-11T05:31:11.493Z,5.10
2019-03-11T05:33:39.022Z,5.10
2019-03-11T05:36:06.506Z,5.00
2019-03-11T05:38:34.407Z,5.00
2019-03-11T05:41:02.045Z,4.90
2019-03-11T05:43:29.587Z,4.90
2019-03-11T05:45:57.053Z,4.90
2019-03-11T05:48:24.677Z,4.90
2019-03-11T05:50:52.268Z,4.90
2019-03-11T05:53:19.856Z,4.90
2019-03-11T05:55:47.548Z,4.90
2019-03-11T05:58:15.186Z,4.90
2019-03-11T06:00:42.767Z,4.90
2019-03-11T06:03:10.989Z,4.90
2019-03-11T06:05:38.510Z,5.00
2019-03-11T06:08:06.112Z,5.00
2019-03-11T06:10:33.578Z,5.00
2019-03-11T06:13:01.147Z,5.10
2019-03-11T06:15:28.770Z,5.10
2019-03-11T06:17:56.334Z,5.10
2019-03-11T06:20:43.406Z,5.10
2019-03-11T06:23:11.555Z,5.10
2019-03-11T06:25:41.690Z,5.10
2019-03-11T06:28:10.418Z,5.10
2019-03-11T06:30:37.977Z,5.20
2019-03-11T06:33:05.684Z,5.10
2019-03-11T06:35:33.420Z,5.10
2019-03-11T06:38:01.080Z,5.00
2019-03-11T06:40:28.626Z,5.00
2019-03-11T06:42:56.057Z,5.00
2019-03-11T06:45:23.629Z,5.10
2019-03-11T06:47:51.179Z,5.00
2019-03-11T06:50:19.345Z,5.00
2019-03-11T06:52:47.082Z,5.00
2019-03-11T06:55:14.807Z,5.00
2019-03-11T06:57:42.717Z,5.10
2019-03-11T07:00:12.039Z,5.10
2019-03-11T07:02:40.000Z,5.00
2019-03-11T07:05:18.877Z,5.10
2019-03-11T07:07:37.026Z,5.10
2019-03-11T07:10:05.442Z,5.10
2019-03-11T07:12:33.082Z,4.50
2019-03-11T07:15:00.569Z,4.00
2019-03-11T07:17:28.222Z,3.50
2019-03-11T07:19:55.799Z,3.10
2019-03-11T07:22:23.829Z,2.80
2019-03-11T07:24:51.303Z,2.60
2019-03-11T07:27:18.777Z,2.50
2019-03-11T07:29:46.385Z,2.30
2019-03-11T07:32:13.935Z,2.20
2019-03-11T07:34:41.513Z,2.10
2019-03-11T07:37:10.374Z,2.10
2019-03-11T07:39:37.947Z,2.00
2019-03-11T07:42:05.856Z,1.90
2019-03-11T07:44:33.413Z,1.70
2019-03-11T07:47:01.113Z,1.70
2019-03-11T07:49:28.756Z,1.50
2019-03-11T07:51:56.403Z,1.40
2019-03-11T07:54:24.003Z,1.40
2019-03-11T07:56:51.499Z,1.50
2019-03-11T07:59:19.004Z,1.50
2019-03-11T08:01:46.547Z,1.70
2019-03-11T08:04:14.042Z,1.70
2019-03-11T08:06:41.743Z,1.70
2019-03-11T08:09:09.287Z,1.70
2019-03-11T08:11:37.282Z,1.70
2019-03-11T08:14:04.884Z,1.70
2019-03-11T08:16:33.491Z,1.70
2019-03-11T08:19:01.096Z,1.80
2019-03-11T08:21:28.594Z,1.90
2019-03-11T08:23:56.240Z,1.90
2019-03-11T08:26:23.702Z,2.00
2019-03-11T08:28:51.241Z,2.00
2019-03-11T08:31:18.870Z,2.00
2019-03-11T08:33:47.892Z,2.00
2019-03-11T08:36:15.957Z,2.20
2019-03-11T08:38:43.550Z,2.60
2019-03-11T08:41:11.102Z,3.30
2019-03-11T08:43:38.784Z,3.50
2019-03-11T08:46:06.648Z,4.60
2019-03-11T08:48:34.441Z,6.40
2019-03-11T08:51:02.000Z,7.00
2019-03-11T08:53:29.542Z,6.60
2019-03-11T08:55:57.189Z,6.00
2019-03-11T08:58:24.719Z,5.30
2019-03-11T09:00:52.326Z,4.90
2019-03-11T09:03:19.847Z,4.90
2019-03-11T09:05:47.413Z,4.90
2019-03-11T09:08:14.998Z,5.10
2019-03-11T09:10:43.990Z,5.00
2019-03-11T09:13:11.549Z,5.00
2019-03-11T09:15:39.176Z,4.80
2019-03-11T09:18:06.885Z,4.60
2019-03-11T09:20:34.395Z,4.40
2019-03-11T09:23:01.845Z,4.30
2019-03-11T09:25:29.342Z,4.30
2019-03-11T09:27:58.153Z,4.30
2019-03-11T09:30:25.736Z,4.40
2019-03-11T09:33:17.644Z,4.80
2019-03-11T09:35:48.355Z,5.60
2019-03-11T09:38:15.828Z,6.70
2019-03-11T09:40:43.405Z,7.10
2019-03-11T09:43:10.979Z,7.50
2019-03-11T09:45:38.675Z,7.60
2019-03-11T09:48:06.197Z,7.10
2019-03-11T09:50:33.749Z,7.20
2019-03-11T09:53:01.337Z,7.80
2019-03-11T09:55:29.024Z,8.50
2019-03-11T09:57:56.543Z,9.10
2019-03-11T10:00:25.147Z,9.00
2019-03-11T10:02:53.555Z,9.10
2019-03-11T10:05:21.366Z,9.20
2019-03-11T10:07:49.367Z,9.20
2019-03-11T10:10:17.019Z,8.80
2019-03-11T10:12:45.619Z,8.40
2019-03-11T10:15:15.190Z,8.30
2019-03-11T10:17:42.714Z,8.20
2019-03-11T10:20:10.774Z,8.40
2019-03-11T10:22:39.501Z,8.80
2019-03-11T10:25:07.208Z,8.70
2019-03-11T10:27:34.834Z,9.20
2019-03-11T10:30:03.176Z,9.10
2019-03-11T10:32:32.407Z,9.30
2019-03-11T10:35:00.165Z,9.50
2019-03-11T10:37:27.655Z,9.70
2019-03-11T10:39:55.196Z,9.90
2019-03-11T10:42:24.429Z,9.70
2019-03-11T10:44:52.074Z,9.60
2019-03-11T10:47:19.750Z,8.90
2019-03-11T10:49:48.194Z,8.70
2019-03-11T10:52:15.971Z,8.70
2019-03-11T10:54:44.571Z,8.70
2019-03-11T10:57:12.280Z,8.80
2019-03-11T10:59:39.957Z,9.10
2019-03-11T11:02:07.445Z,9.10
2019-03-11T11:04:35.003Z,8.90
2019-03-11T11:07:02.699Z,8.60
2019-03-11T11:09:30.642Z,8.10
2019-03-11T11:11:58.283Z,8.00
2019-03-11T11:14:25.980Z,8.00
2019-03-11T11:16:53.736Z,7.80
2019-03-11T11:19:21.350Z,8.60
2019-03-11T11:21:48.943Z,10.00
2019-03-11T11:24:16.537Z,10.40
2019-03-11T11:26:44.166Z,9.80
2019-03-11T11:29:11.813Z,9.30
2019-03-11T11:31:39.494Z,10.20
2019-03-11T11:34:07.001Z,11.00
2019-03-11T11:36:34.574Z,11.30
2019-03-11T11:39:02.280Z,10.80
2019-03-11T11:41:31.806Z,10.00
2019-03-11T11:43:59.298Z,9.30
2019-03-11T11:46:26.857Z,9.30
2019-03-11T11:48:54.332Z,9.50
2019-03-11T11:51:21.837Z,10.30
2019-03-11T11:53:49.362Z,10.60
2019-03-11T11:56:16.983Z,10.30
2019-03-11T11:58:44.613Z,10.60
2019-03-11T12:01:12.240Z,10.90
2019-03-11T12:03:39.749Z,11.30
2019-03-11T12:06:07.566Z,10.90
2019-03-11T12:08:35.155Z,10.10
2019-03-11T12:11:03.002Z,10.50
2019-03-11T12:13:30.665Z,10.80
2019-03-11T12:15:58.221Z,9.70
2019-03-11T12:18:25.883Z,9.30
2019-03-11T12:20:53.558Z,9.10
2019-03-11T12:23:21.156Z,9.10
2019-03-11T12:25:48.839Z,8.70
2019-03-11T12:28:17.581Z,8.50
2019-03-11T12:30:45.110Z,8.40
2019-03-11T12:33:12.696Z,7.80
2019-03-11T12:35:40.233Z,7.50
2019-03-11T12:38:07.875Z,7.20
2019-03-11T12:40:35.567Z,8.00
2019-03-11T12:43:03.085Z,8.60
2019-03-11T12:45:30.782Z,9.50
2019-03-11T12:47:58.608Z,9.90
2019-03-11T12:50:26.340Z,11.10
2019-03-11T12:52:54.105Z,12.60
2019-03-11T12:55:21.994Z,12.60
2019-03-11T12:57:49.751Z,13.00
2019-03-11T13:00:17.924Z,13.20
2019-03-11T13:02:45.612Z,12.20
2019-03-11T13:05:13.476Z,12.80
2019-03-11T13:07:41.250Z,13.20
2019-03-11T13:10:10.800Z,12.40
2019-03-11T13:12:38.414Z,11.10
2019-03-11T13:15:06.954Z,10.50
2019-03-11T13:17:34.543Z,10.00
2019-03-11T13:20:02.050Z,9.70
2019-03-11T13:22:29.929Z,8.80
2019-03-11T13:24:58.553Z,8.30
2019-03-11T13:27:26.471Z,8.10
2019-03-11T13:29:54.146Z,8.40
2019-03-11T13:32:21.686Z,8.80
2019-03-11T13:34:49.203Z,8.40
2019-03-11T13:37:17.085Z,8.30
2019-03-11T13:39:44.878Z,8.40
2019-03-11T13:42:12.438Z,9.40
2019-03-11T13:44:40.070Z,10.60
2019-03-11T13:47:07.702Z,12.30
2019-03-11T13:49:35.466Z,13.90
2019-03-11T13:52:03.111Z,15.60
2019-03-11T13:54:30.925Z,16.80
2019-03-11T13:56:58.439Z,17.20
2019-03-11T13:59:26.056Z,18.80
2019-03-11T14:01:53.750Z,19.50
2019-03-11T14:04:21.759Z,19.70
2019-03-11T14:06:49.334Z,18.30
2019-03-11T14:09:16.887Z,16.90
2019-03-11T14:11:44.750Z,15.50
2019-03-11T14:14:12.277Z,14.60
2019-03-11T14:16:39.844Z,14.00
2019-03-11T14:19:07.542Z,13.20
2019-03-11T14:21:35.392Z,11.90
2019-03-11T14:24:02.928Z,11.40
2019-03-11T14:26:30.582Z,12.30
2019-03-11T14:28:58.297Z,12.30
2019-03-11T14:31:26.019Z,11.10
2019-03-11T14:33:53.535Z,10.40
2019-03-11T14:36:21.174Z,10.00
2019-03-11T14:38:49.113Z,9.70
2019-03-11T14:41:16.731Z,9.10
2019-03-11T14:43:44.265Z,8.80
2019-03-11T14:46:12.070Z,8.20
2019-03-11T14:48:39.842Z,7.60
2019-03-11T14:51:07.615Z,7.30
2019-03-11T14:53:35.231Z,7.90
2019-03-11T14:56:03.034Z,8.20
2019-03-11T14:58:30.619Z,8.90
2019-03-11T15:00:58.165Z,9.50
2019-03-11T15:03:26.830Z,10.90
2019-03-11T15:05:54.676Z,12.40
2019-03-11T15:08:22.453Z,13.30
2019-03-11T15:10:50.008Z,13.80
2019-03-11T15:13:17.858Z,13.90
2019-03-11T15:15:45.383Z,13.00
2019-03-11T15:18:13.019Z,11.70
2019-03-11T15:20:40.564Z,10.40
2019-03-11T15:23:19.980Z,10.10
2019-03-11T15:25:38.460Z,10.10
2019-03-11T15:28:06.210Z,10.70
2019-03-11T15:30:33.748Z,10.80
2019-03-11T15:33:01.388Z,10.30
2019-03-11T15:35:29.213Z,9.80
2019-03-11T15:37:56.844Z,9.20
2019-03-11T15:40:27.151Z,8.80
2019-03-11T15:42:54.860Z,8.50
2019-03-11T15:45:22.414Z,8.10
2019-03-11T15:47:50.068Z,7.90
2019-03-11T15:50:20.401Z,7.50
2019-03-11T15:52:48.068Z,7.30
2019-03-11T15:55:16.148Z,7.10
2019-03-11T15:57:43.678Z,6.90
2019-03-11T16:00:14.008Z,6.90
2019-03-11T16:02:41.586Z,7.10
2019-03-11T16:05:09.310Z,7.60
2019-03-11T16:07:37.114Z,8.00
2019-03-11T16:10:16.022Z,8.00
2019-03-11T16:12:34.769Z,8.00
2019-03-11T16:15:02.433Z,8.10
2019-03-11T16:17:30.607Z,8.60
2019-03-11T16:19:58.141Z,8.60
2019-03-11T16:22:26.451Z,8.50
2019-03-11T16:24:54.233Z,8.40
2019-03-11T16:27:21.887Z,8.30
2019-03-11T16:29:49.659Z,8.00
2019-03-11T16:32:17.177Z,7.90
2019-03-11T16:34:44.700Z,7.60
2019-03-11T16:37:12.298Z,7.50
2019-03-11T16:39:39.955Z,7.20
2019-03-11T16:42:07.616Z,6.90
2019-03-11T16:44:35.402Z,6.50
2019-03-11T16:47:02.959Z,6.30
2019-03-11T16:49:30.430Z,6.20
2019-03-11T16:51:58.184Z,6.20
2019-03-11T16:54:26.005Z,5.90
2019-03-11T16:56:53.797Z,5.80
2019-03-11T17:02:00.154Z,5.60
2019-03-11T17:04:27.722Z,5.50
2019-03-11T17:06:55.241Z,5.30
2019-03-11T17:09:22.785Z,5.20
2019-03-11T17:11:50.430Z,5.10
2019-03-11T17:14:17.994Z,4.90
2019-03-11T17:16:45.523Z,4.80
2019-03-11T17:19:13.372Z,4.80
2019-03-11T17:21:41.051Z,4.70
2019-03-11T17:24:08.874Z,4.60
2019-03-11T17:26:36.508Z,4.60
2019-03-11T17:29:04.265Z,4.60
2019-03-11T17:31:31.880Z,4.50
2019-03-11T17:33:59.362Z,4.40
2019-03-11T17:36:27.957Z,4.30
2019-03-11T17:38:55.633Z,4.30
2019-03-11T17:41:23.414Z,4.30
2019-03-11T17:43:52.204Z,4.30
2019-03-11T17:46:19.754Z,4.30
2019-03-11T17:48:47.481Z,4.30
2019-03-11T17:51:15.224Z,4.20
2019-03-11T17:53:43.184Z,4.20
2019-03-11T17:56:10.774Z,4.10
2019-03-11T17:58:38.601Z,4.10
2019-03-11T18:01:06.174Z,4.10
2019-03-11T18:03:33.744Z,4.10
2019-03-11T18:06:11.149Z,4.10
2019-03-11T18:08:31.685Z,4.10
2019-03-11T18:10:59.238Z,4.10
2019-03-11T18:13:26.778Z,4.10
2019-03-11T18:15:54.349Z,4.00
2019-03-11T18:18:32.461Z,4.00
2019-03-11T18:20:51.350Z,4.10
2019-03-11T18:23:18.925Z,4.10
2019-03-11T18:25:46.542Z,4.10
2019-03-11T18:28:14.109Z,4.10
2019-03-11T18:30:41.662Z,4.20
2019-03-11T18:33:09.260Z,4.30
2019-03-11T18:35:36.854Z,4.30
2019-03-11T18:38:05.051Z,4.30
2019-03-11T18:40:32.884Z,4.30
2019-03-11T18:43:00.336Z,4.40
2019-03-11T18:45:28.009Z,4.40
2019-03-11T18:47:55.663Z,4.40
2019-03-11T18:50:23.462Z,4.40
2019-03-11T18:52:50.873Z,4.40
2019-03-11T18:55:19.141Z,4.40
2019-03-11T18:57:46.736Z,4.40
2019-03-11T19:00:16.275Z,4.50
2019-03-11T19:02:44.056Z,4.50
2019-03-11T19:05:12.373Z,4.50
2019-03-11T19:07:40.063Z,4.60
2019-03-11T19:10:08.741Z,4.60
2019-03-11T19:12:36.849Z,4.70
2019-03-11T19:15:05.296Z,4.80
2019-03-11T19:17:33.030Z,4.80
2019-03-11T19:20:00.803Z,4.90
2019-03-11T19:22:28.704Z,4.90
2019-03-11T19:24:56.300Z,5.00
2019-03-11T19:27:23.915Z,5.00
2019-03-11T19:29:51.526Z,4.90
2019-03-11T19:32:19.131Z,5.00
2019-03-11T19:34:46.694Z,4.90
2019-03-11T19:37:14.234Z,4.90
2019-03-11T19:39:41.864Z,4.90
2019-03-11T19:42:09.473Z,4.80
2019-03-11T19:44:37.058Z,4.80
2019-03-11T19:47:04.756Z,4.80
2019-03-11T19:49:35.067Z,4.80
2019-03-11T19:52:02.645Z,4.70
2019-03-11T19:54:30.154Z,4.80
2019-03-11T19:56:57.642Z,4.80
2019-03-11T19:59:25.099Z,4.80
2019-03-11T20:01:52.773Z,4.80
2019-03-11T20:04:20.402Z,4.80
2019-03-11T20:06:48.158Z,4.80
2019-03-11T20:09:15.807Z,4.80
2019-03-11T20:11:43.462Z,4.70
2019-03-11T20:14:11.124Z,4.70
2019-03-11T20:16:38.926Z,4.60
2019-03-11T20:19:06.546Z,4.60
2019-03-11T20:21:34.020Z,4.50
2019-03-11T20:24:01.697Z,4.50
2019-03-11T20:26:29.648Z,4.40
2019-03-11T20:28:57.258Z,4.40
2019-03-11T20:31:24.900Z,4.50
2019-03-11T20:33:52.574Z,4.40
2019-03-11T20:36:21.425Z,4.50
2019-03-11T20:38:49.162Z,4.50
2019-03-11T20:41:16.660Z,4.50
2019-03-11T20:43:44.277Z,4.60
2019-03-11T20:46:11.880Z,4.60
2019-03-11T20:48:39.486Z,4.70
2019-03-11T20:51:07.053Z,4.70
2019-03-11T20:53:34.647Z,4.70
2019-03-11T20:56:02.202Z,4.70
2019-03-11T20:58:30.942Z,4.70
2019-03-11T21:00:58.506Z,4.80
2019-03-11T21:03:26.040Z,4.80
2019-03-11T21:05:53.791Z,4.80
2019-03-11T21:08:21.488Z,4.80
2019-03-11T21:10:49.134Z,4.80
2019-03-11T21:13:16.898Z,4.80
2019-03-11T21:15:45.503Z,4.80
2019-03-11T21:18:13.162Z,4.90
2019-03-11T21:20:40.935Z,4.90
2019-03-11T21:23:08.470Z,5.00
2019-03-11T21:25:36.157Z,4.90
2019-03-11T21:28:03.714Z,4.90
2019-03-11T21:30:31.311Z,4.90
2019-03-11T21:32:59.080Z,5.00
2019-03-11T21:35:26.787Z,5.00
2019-03-11T21:37:54.500Z,5.00
2019-03-11T21:40:22.361Z,5.00
2019-03-11T21:42:50.147Z,5.00
2019-03-11T21:45:17.766Z,5.00
2019-03-11T21:47:50.790Z,5.00
2019-03-11T21:50:18.754Z,5.00
2019-03-11T21:52:46.356Z,4.90
2019-03-11T21:55:13.994Z,4.90
2019-03-11T21:57:41.712Z,4.90
2019-03-11T22:00:12.016Z,4.90
2019-03-11T22:02:39.965Z,4.90
2019-03-11T22:05:07.518Z,4.80
2019-03-11T22:07:35.018Z,4.80
2019-03-11T22:10:02.500Z,4.80
2019-03-11T22:12:30.381Z,4.80
2019-03-11T22:14:58.009Z,4.90
2019-03-11T22:17:25.495Z,4.90
2019-03-11T22:19:52.957Z,4.90
2019-03-11T22:22:20.402Z,4.90
2019-03-11T22:24:47.938Z,4.90
2019-03-11T22:27:15.359Z,4.90
2019-03-11T22:29:42.825Z,4.80
2019-03-11T22:32:11.471Z,4.90
2019-03-11T22:34:38.946Z,4.90
2019-03-11T22:37:06.565Z,4.90
2019-03-11T22:39:34.117Z,4.90
2019-03-11T22:42:01.673Z,4.90
2019-03-11T22:44:29.369Z,4.90
2019-03-11T22:46:56.849Z,4.90
2019-03-11T22:49:24.372Z,4.90
2019-03-11T22:51:52.039Z,4.90
2019-03-11T22:54:20.587Z,4.80
2019-03-11T22:56:48.353Z,4.80
2019-03-11T22:59:25.729Z,4.80
2019-03-11T23:01:54.678Z,4.90
2019-03-11T23:04:27.439Z,4.80
2019-03-11T23:06:55.757Z,4.90
2019-03-11T23:09:24.698Z,4.90
2019-03-11T23:11:53.059Z,4.90
2019-03-11T23:14:21.157Z,4.90
2019-03-11T23:16:49.445Z,4.90
2019-03-11T23:19:18.704Z,4.90
2019-03-11T23:21:46.526Z,4.80
2019-03-11T23:24:14.180Z,4.90
2019-03-11T23:26:41.838Z,4.80
2019-03-11T23:29:09.458Z,4.70
2019-03-11T23:31:37.086Z,4.70
2019-03-11T23:34:05.162Z,4.70
2019-03-11T23:36:32.674Z,4.60
2019-03-11T23:39:00.198Z,4.60
2019-03-11T23:41:29.008Z,4.60
2019-03-11T23:43:56.841Z,4.60
2019-03-11T23:46:24.346Z,4.60
2019-03-11T23:48:51.873Z,4.60
2019-03-11T23:51:19.499Z,4.60
2019-03-11T23:53:47.057Z,4.60
2019-03-11T23:56:14.652Z,4.60
2019-03-11T23:58:42.172Z,4.60
